createdAt,value
2023-04-07T00:00:58.119Z,6.43
2023-04-07T00:03:59.789Z,6.80
2023-04-07T00:07:01.470Z,7.20
2023-04-07T00:10:02.848Z,7.00
2023-04-07T00:13:04.572Z,7.43
2023-04-07T00:16:06.312Z,6.90
2023-04-07T00:19:07.776Z,7.20
2023-04-07T00:22:09.353Z,7.27
2023-04-07T00:25:10.955Z,7.73
2023-04-07T00:28:12.347Z,7.27
2023-04-07T00:31:14.170Z,7.30
2023-04-07T00:34:16.053Z,7.60
2023-04-07T00:37:17.582Z,7.80
2023-04-07T00:40:18.977Z,7.43
2023-04-07T00:43:20.409Z,7.10
2023-04-07T00:46:23.883Z,7.80
2023-04-07T00:49:26.640Z,7.10
2023-04-07T00:52:29.993Z,8.20
2023-04-07T00:55:31.399Z,7.33
2023-04-07T00:58:32.781Z,7.30
2023-04-07T01:02:11.414Z,8.00
2023-04-07T01:05:21.261Z,7.60
2023-04-07T01:08:53.933Z,7.93
2023-04-07T01:12:04.258Z,7.83
2023-04-07T01:15:12.213Z,8.27
2023-04-07T01:18:27.916Z,8.03
2023-04-07T01:21:34.110Z,7.43
2023-04-07T01:24:56.767Z,7.60
2023-04-07T01:28:01.999Z,8.37
2023-04-07T01:31:07.450Z,8.33
2023-04-07T01:34:13.080Z,7.90
2023-04-07T01:37:16.364Z,8.53
2023-04-07T01:40:18.683Z,8.37
2023-04-07T01:43:21.246Z,8.00
2023-04-07T01:46:22.995Z,8.50
2023-04-07T01:49:25.776Z,8.63
2023-04-07T01:52:28.267Z,7.87
2023-04-07T01:55:30.051Z,7.97
2023-04-07T01:58:43.466Z,8.50
2023-04-07T02:01:48.801Z,8.77
2023-04-07T02:05:00.501Z,8.43
2023-04-07T02:08:04.961Z,8.37
2023-04-07T02:11:11.569Z,8.63
2023-04-07T02:14:14.501Z,8.07
2023-04-07T02:17:34.814Z,8.70
2023-04-07T02:20:37.430Z,8.37
2023-04-07T02:23:38.854Z,8.70
2023-04-07T02:26:43.177Z,8.47
2023-04-07T02:29:44.549Z,8.67
2023-04-07T02:32:46.064Z,8.87
2023-04-07T02:35:49.074Z,8.90
2023-04-07T02:38:50.516Z,9.37
2023-04-07T02:41:51.887Z,8.87
2023-04-07T02:44:53.317Z,9.03
2023-04-07T02:47:54.707Z,8.60
2023-04-07T02:50:56.377Z,9.10
2023-04-07T02:53:57.985Z,8.23
2023-04-07T02:56:59.588Z,9.33
2023-04-07T03:00:01.198Z,8.73
2023-04-07T03:03:17.442Z,9.80
2023-04-07T03:06:31.466Z,8.93
2023-04-07T03:09:39.245Z,8.83
2023-04-07T03:12:40.881Z,9.37
2023-04-07T03:15:43.188Z,9.40
2023-04-07T03:18:45.790Z,9.73
2023-04-07T03:21:48.158Z,10.20
2023-04-07T03:24:49.618Z,9.57
2023-04-07T03:27:52.247Z,9.33
2023-04-07T03:30:54.372Z,9.53
2023-04-07T03:33:56.679Z,8.77
2023-04-07T03:36:58.179Z,8.73
2023-04-07T03:40:00.099Z,9.27
2023-04-07T03:43:12.236Z,9.13
2023-04-07T03:46:13.680Z,9.13
2023-04-07T03:49:15.456Z,9.03
2023-04-07T03:52:17.915Z,9.00
2023-04-07T03:55:22.746Z,9.40
2023-04-07T03:58:27.756Z,9.23
2023-04-07T04:01:29.357Z,9.07
2023-04-07T04:04:32.864Z,9.27
2023-04-07T04:07:35.912Z,9.40
2023-04-07T04:10:40.419Z,9.60
2023-04-07T04:13:41.878Z,8.67
2023-04-07T04:16:43.385Z,9.17
2023-04-07T04:19:58.636Z,8.63
2023-04-07T04:23:11.191Z,8.70
2023-04-07T04:26:12.779Z,9.80
2023-04-07T04:29:16.372Z,9.27
2023-04-07T04:32:19.634Z,9.90
2023-04-07T04:35:21.779Z,9.50
2023-04-07T04:38:36.732Z,9.73
2023-04-07T04:41:45.418Z,9.93
2023-04-07T04:44:47.074Z,10.93
2023-04-07T04:47:49.798Z,10.20
2023-04-07T04:50:51.918Z,9.90
2023-04-07T04:53:53.676Z,10.77
2023-04-07T04:56:57.646Z,10.33
2023-04-07T04:59:59.388Z,10.07
2023-04-07T05:03:03.324Z,11.30
2023-04-07T05:06:08.468Z,11.10
2023-04-07T05:09:10.011Z,11.23
2023-04-07T05:12:18.287Z,10.57
2023-04-07T05:15:24.497Z,11.10
2023-04-07T05:18:26.122Z,10.93
2023-04-07T05:21:28.319Z,11.53
2023-04-07T05:24:33.339Z,11.43
2023-04-07T05:27:36.105Z,11.30
2023-04-07T05:30:44.496Z,10.90
2023-04-07T05:33:46.340Z,11.80
2023-04-07T05:36:50.978Z,12.37
2023-04-07T05:39:52.568Z,12.27
2023-04-07T05:42:53.961Z,12.27
2023-04-07T05:45:55.895Z,11.97
2023-04-07T05:48:59.154Z,12.73
2023-04-07T05:52:05.914Z,11.00
2023-04-07T05:55:10.930Z,11.27
2023-04-07T05:58:12.750Z,11.37
2023-04-07T06:01:16.703Z,11.80
2023-04-07T06:04:18.078Z,12.53
2023-04-07T06:07:22.988Z,12.00
2023-04-07T06:10:24.381Z,12.13
2023-04-07T06:13:25.823Z,11.17
2023-04-07T06:16:27.901Z,10.73
2023-04-07T06:19:29.390Z,11.83
2023-04-07T06:22:30.824Z,11.70
2023-04-07T06:25:32.199Z,11.00
2023-04-07T06:28:35.576Z,11.13
2023-04-07T06:31:37.827Z,10.67
2023-04-07T06:34:39.323Z,10.93
2023-04-07T06:37:40.985Z,10.50
2023-04-07T06:40:42.350Z,11.13
2023-04-07T06:43:44.882Z,10.90
2023-04-07T06:46:49.382Z,9.43
2023-04-07T06:49:51.139Z,11.37
2023-04-07T06:52:52.566Z,11.63
2023-04-07T06:56:07.834Z,11.27
2023-04-07T06:59:09.603Z,10.03
2023-04-07T07:02:11.130Z,11.00
2023-04-07T07:05:12.731Z,10.03
2023-04-07T07:08:14.145Z,10.43
2023-04-07T07:11:15.577Z,11.17
2023-04-07T07:14:16.934Z,10.23
2023-04-07T07:17:18.318Z,9.97
2023-04-07T07:20:19.868Z,9.30
2023-04-07T07:23:21.293Z,8.60
2023-04-07T07:26:22.721Z,8.20
2023-04-07T07:29:24.100Z,8.47
2023-04-07T07:32:25.546Z,8.20
2023-04-07T07:35:27.191Z,9.20
2023-04-07T07:38:28.616Z,8.97
2023-04-07T07:41:30.899Z,9.37
2023-04-07T07:44:32.628Z,8.90
2023-04-07T07:47:34.099Z,6.30
2023-04-07T07:50:35.586Z,6.70
2023-04-07T07:53:36.957Z,6.13
2023-04-07T07:56:38.472Z,6.57
2023-04-07T07:59:42.502Z,7.27
2023-04-07T08:02:44.134Z,6.30
2023-04-07T08:05:46.180Z,6.40
2023-04-07T08:08:47.679Z,6.40
2023-04-07T08:11:49.112Z,5.67
2023-04-07T08:14:50.565Z,5.50
2023-04-07T08:17:53.994Z,5.00
2023-04-07T08:20:57.439Z,5.17
2023-04-07T08:23:58.887Z,5.50
2023-04-07T08:27:01.383Z,5.10
2023-04-07T08:30:06.881Z,5.10
2023-04-07T08:33:08.452Z,4.97
2023-04-07T08:36:10.060Z,5.70
2023-04-07T08:39:11.559Z,4.90
2023-04-07T08:42:14.108Z,5.00
2023-04-07T08:45:17.589Z,5.03
2023-04-07T08:48:23.901Z,4.80
2023-04-07T08:51:31.589Z,4.83
2023-04-07T08:54:33.996Z,4.03
2023-04-07T08:57:36.804Z,5.40
2023-04-07T09:00:42.202Z,5.27
2023-04-07T09:03:48.907Z,4.90
2023-04-07T09:06:50.996Z,4.27
2023-04-07T09:09:52.446Z,4.17
2023-04-07T09:12:53.850Z,4.00
2023-04-07T09:15:56.071Z,4.10
2023-04-07T09:18:58.263Z,3.67
2023-04-07T09:21:59.737Z,3.77
2023-04-07T09:25:12.824Z,4.13
2023-04-07T09:28:14.201Z,5.10
2023-04-07T09:31:16.030Z,4.50
2023-04-07T09:34:29.092Z,4.73
2023-04-07T09:37:30.483Z,4.40
2023-04-07T09:40:32.559Z,4.57
2023-04-07T09:43:39.637Z,4.00
2023-04-07T09:46:58.394Z,3.97
2023-04-07T09:50:06.386Z,3.53
2023-04-07T09:53:07.895Z,3.47
2023-04-07T09:56:13.700Z,3.80
2023-04-07T09:59:16.714Z,4.43
2023-04-07T10:02:18.139Z,3.87
2023-04-07T10:05:22.526Z,3.90
2023-04-07T10:08:23.950Z,4.37
2023-04-07T10:11:25.424Z,4.33
2023-04-07T10:14:31.571Z,3.80
2023-04-07T10:17:36.206Z,3.53
2023-04-07T10:20:41.942Z,3.57
2023-04-07T10:23:59.613Z,3.60
2023-04-07T10:27:04.961Z,3.33
2023-04-07T10:30:11.907Z,3.77
2023-04-07T10:33:13.294Z,3.67
2023-04-07T10:36:15.066Z,3.90
2023-04-07T10:39:20.709Z,4.50
2023-04-07T10:42:37.313Z,5.37
2023-04-07T10:45:59.915Z,4.53
2023-04-07T10:49:11.687Z,4.23
2023-04-07T10:52:13.109Z,4.80
2023-04-07T10:55:34.401Z,4.47
2023-04-07T10:58:37.255Z,4.80
2023-04-07T11:01:38.858Z,4.40
2023-04-07T11:04:42.694Z,4.60
2023-04-07T11:07:50.157Z,4.80
2023-04-07T11:10:51.707Z,4.77
2023-04-07T11:13:53.151Z,4.53
2023-04-07T11:16:55.008Z,4.80
2023-04-07T11:19:57.994Z,3.20
2023-04-07T11:23:00.353Z,2.80
2023-04-07T11:26:03.211Z,2.50
2023-04-07T11:29:04.873Z,2.30
2023-04-07T11:32:06.736Z,1.93
2023-04-07T11:35:09.016Z,1.87
2023-04-07T11:38:10.430Z,2.03
2023-04-07T11:41:14.289Z,2.00
2023-04-07T11:44:15.901Z,2.50
2023-04-07T11:47:17.256Z,3.47
2023-04-07T11:50:38.814Z,4.90
2023-04-07T11:53:41.044Z,4.50
2023-04-07T11:56:45.658Z,3.47
2023-04-07T11:59:47.105Z,3.40
2023-04-07T12:02:48.616Z,3.20
2023-04-07T12:05:50.753Z,2.37
2023-04-07T12:08:52.139Z,2.57
2023-04-07T12:11:53.810Z,2.03
2023-04-07T12:14:56.306Z,2.10
2023-04-07T12:17:57.770Z,2.30
2023-04-07T12:20:59.326Z,3.00
2023-04-07T12:24:01.006Z,2.73
2023-04-07T12:27:02.991Z,3.30
2023-04-07T12:30:04.863Z,2.83
2023-04-07T12:33:06.372Z,3.07
2023-04-07T12:36:08.182Z,2.50
2023-04-07T12:39:09.592Z,1.90
2023-04-07T12:42:11.891Z,2.10
2023-04-07T12:45:13.354Z,2.00
2023-04-07T12:48:16.148Z,2.13
2023-04-07T12:51:17.601Z,1.90
2023-04-07T12:54:19.131Z,1.90
2023-04-07T12:57:20.703Z,2.00
2023-04-07T13:00:22.217Z,2.20
2023-04-07T13:03:23.926Z,2.00
2023-04-07T13:06:25.532Z,2.00
2023-04-07T13:09:26.939Z,1.87
2023-04-07T13:12:28.629Z,1.63
2023-04-07T13:15:30.018Z,1.80
2023-04-07T13:18:31.381Z,1.50
2023-04-07T13:24:37.830Z,1.37
2023-04-07T13:27:39.252Z,1.90
2023-04-07T13:30:41.538Z,2.00
2023-04-07T13:33:42.994Z,2.23
2023-04-07T13:36:44.391Z,2.60
2023-04-07T13:39:45.917Z,2.60
2023-04-07T13:42:47.298Z,2.57
2023-04-07T13:45:49.307Z,2.30
2023-04-07T13:48:51.257Z,2.13
2023-04-07T13:51:52.657Z,2.40
2023-04-07T13:54:54.696Z,2.33
2023-04-07T13:57:56.053Z,2.50
2023-04-07T14:00:57.428Z,3.30
2023-04-07T14:04:00.847Z,2.67
2023-04-07T14:07:03.510Z,2.40
2023-04-07T14:10:05.355Z,2.93
2023-04-07T14:13:06.875Z,2.87
2023-04-07T14:16:08.389Z,3.00
2023-04-07T14:19:09.900Z,2.87
2023-04-07T14:22:11.280Z,2.53
2023-04-07T14:25:12.736Z,2.00
2023-04-07T14:28:14.280Z,2.20
2023-04-07T14:31:16.366Z,2.20
2023-04-07T14:34:17.737Z,2.30
2023-04-07T14:37:23.944Z,2.30
2023-04-07T14:40:25.311Z,2.40
2023-04-07T14:43:27.724Z,2.07
2023-04-07T14:46:29.233Z,2.00
2023-04-07T14:49:30.652Z,2.37
2023-04-07T14:52:32.394Z,2.23
2023-04-07T14:55:34.354Z,2.10
2023-04-07T14:58:37.325Z,2.27
2023-04-07T15:01:39.788Z,2.60
2023-04-07T15:04:44.343Z,2.60
2023-04-07T15:07:48.683Z,2.23
2023-04-07T15:10:50.078Z,2.53
2023-04-07T15:13:51.577Z,2.37
2023-04-07T15:16:53.217Z,2.43
2023-04-07T15:19:54.775Z,2.23
2023-04-07T15:22:56.713Z,2.00
2023-04-07T15:25:58.144Z,2.30
2023-04-07T15:28:59.533Z,2.97
2023-04-07T15:32:01.153Z,2.47
2023-04-07T15:35:02.566Z,1.70
2023-04-07T15:38:04.005Z,1.70
2023-04-07T15:41:05.629Z,1.60
2023-04-07T15:44:07.146Z,2.10
2023-04-07T15:47:09.165Z,1.80
2023-04-07T15:50:11.120Z,2.20
2023-04-07T15:53:12.844Z,2.13
2023-04-07T15:56:14.258Z,2.30
2023-04-07T15:59:16.109Z,2.27
2023-04-07T16:02:17.840Z,2.23
2023-04-07T16:05:19.328Z,2.17
2023-04-07T16:08:20.703Z,1.60
2023-04-07T16:11:22.173Z,1.80
2023-04-07T16:14:23.588Z,2.10
2023-04-07T16:17:25.028Z,2.50
2023-04-07T16:20:26.640Z,2.30
2023-04-07T16:23:28.188Z,2.30
2023-04-07T16:26:29.661Z,1.80
2023-04-07T16:29:31.030Z,1.70
2023-04-07T16:32:33.665Z,2.07
2023-04-07T16:35:35.131Z,1.90
2023-04-07T16:38:36.542Z,1.93
2023-04-07T16:41:38.064Z,1.80
2023-04-07T16:44:39.681Z,1.70
2023-04-07T16:47:44.494Z,1.40
2023-04-07T16:50:47.478Z,3.83
2023-04-07T16:53:49.130Z,1.30
2023-04-07T16:56:50.752Z,1.10
2023-04-07T16:59:52.522Z,1.00
2023-04-07T17:02:54.016Z,1.00
2023-04-07T17:05:55.521Z,0.93
2023-04-07T17:08:56.941Z,2.17
2023-04-07T17:12:01.153Z,1.43
2023-04-07T17:15:02.567Z,1.80
2023-04-07T17:18:04.126Z,1.17
2023-04-07T17:21:05.865Z,2.80
2023-04-07T17:24:07.705Z,2.97
2023-04-07T17:27:09.136Z,7.10
2023-04-07T17:30:11.183Z,5.30
2023-04-07T17:33:12.595Z,2.80
2023-04-07T17:36:14.312Z,2.53
2023-04-07T17:39:15.846Z,4.00
2023-04-07T17:42:18.247Z,1.23
2023-04-07T17:45:19.652Z,1.90
2023-04-07T17:48:21.028Z,2.87
2023-04-07T17:51:22.425Z,11.43
2023-04-07T17:54:24.035Z,1.40
2023-04-07T17:57:25.487Z,1.50
2023-04-07T18:00:27.568Z,1.50
2023-04-07T18:03:29.095Z,1.50
2023-04-07T18:06:31.514Z,1.50
2023-04-07T18:09:33.422Z,1.47
2023-04-07T18:12:35.323Z,2.00
2023-04-07T18:15:36.765Z,2.30
2023-04-07T18:18:38.220Z,2.30
2023-04-07T18:21:39.938Z,2.80
2023-04-07T18:24:41.313Z,2.20
2023-04-07T18:27:42.858Z,1.97
2023-04-07T18:30:44.270Z,1.63
2023-04-07T18:33:45.738Z,1.73
2023-04-07T18:36:48.023Z,1.93
2023-04-07T18:39:49.522Z,1.60
2023-04-07T18:42:51.775Z,1.87
2023-04-07T18:45:54.127Z,3.60
2023-04-07T18:48:55.702Z,2.27
2023-04-07T18:51:57.314Z,2.20
2023-04-07T18:54:58.920Z,1.77
2023-04-07T18:58:00.718Z,1.97
2023-04-07T19:01:02.124Z,1.77
2023-04-07T19:04:03.808Z,1.90
2023-04-07T19:07:05.272Z,2.00
2023-04-07T19:10:07.302Z,1.80
2023-04-07T19:13:08.686Z,1.83
2023-04-07T19:16:10.133Z,2.00
2023-04-07T19:19:13.033Z,2.00
2023-04-07T19:22:14.420Z,2.20
2023-04-07T19:25:16.200Z,3.83
2023-04-07T19:28:17.664Z,3.97
2023-04-07T19:31:19.182Z,3.83
2023-04-07T19:34:20.957Z,2.60
2023-04-07T19:37:22.397Z,3.33
2023-04-07T19:40:24.605Z,2.40
2023-04-07T19:43:26.220Z,2.80
2023-04-07T19:46:28.508Z,2.23
2023-04-07T19:49:30.134Z,2.63
2023-04-07T19:52:32.426Z,2.40
2023-04-07T19:55:33.841Z,2.80
2023-04-07T19:58:35.468Z,2.77
2023-04-07T20:01:37.025Z,2.90
2023-04-07T20:04:38.496Z,2.50
2023-04-07T20:07:39.933Z,3.20
2023-04-07T20:10:41.390Z,3.40
2023-04-07T20:13:42.777Z,3.10
2023-04-07T20:16:44.227Z,3.10
2023-04-07T20:19:46.800Z,2.90
2023-04-07T20:22:48.169Z,3.37
2023-04-07T20:25:49.537Z,3.33
2023-04-07T20:28:51.224Z,3.30
2023-04-07T20:31:52.877Z,3.77
2023-04-07T20:34:54.782Z,3.20
2023-04-07T20:37:56.217Z,3.10
2023-04-07T20:40:57.706Z,3.50
2023-04-07T20:43:59.166Z,2.97
2023-04-07T20:47:10.210Z,2.70
2023-04-07T20:50:11.628Z,2.27
2023-04-07T20:53:13.355Z,2.50
2023-04-07T20:56:15.321Z,2.23
2023-04-07T20:59:16.733Z,2.30
2023-04-07T21:02:18.197Z,2.00
2023-04-07T21:05:20.702Z,2.20
2023-04-07T21:08:24.324Z,2.20
2023-04-07T21:11:26.001Z,1.77
2023-04-07T21:14:27.384Z,2.07
2023-04-07T21:17:28.868Z,2.70
2023-04-07T21:20:31.198Z,2.17
2023-04-07T21:23:32.681Z,2.20
2023-04-07T21:26:34.054Z,1.83
2023-04-07T21:29:35.513Z,2.00
2023-04-07T21:32:36.931Z,2.07
2023-04-07T21:35:38.493Z,2.30
2023-04-07T21:38:39.893Z,2.17
2023-04-07T21:41:41.903Z,2.20
2023-04-07T21:44:43.304Z,1.97
2023-04-07T21:47:44.734Z,2.13
2023-04-07T21:50:46.341Z,1.77
2023-04-07T21:53:47.710Z,2.37
2023-04-07T21:56:49.305Z,2.13
2023-04-07T21:59:50.764Z,1.83
2023-04-07T22:02:52.464Z,2.20
2023-04-07T22:05:53.989Z,2.00
2023-04-07T22:09:01.161Z,2.10
2023-04-07T22:12:03.474Z,2.07
2023-04-07T22:15:05.424Z,2.20
2023-04-07T22:18:07.176Z,2.03
2023-04-07T22:21:08.584Z,2.33
2023-04-07T22:24:09.995Z,2.30
2023-04-07T22:27:11.410Z,1.90
2023-04-07T22:30:12.825Z,1.90
2023-04-07T22:33:14.251Z,2.47
2023-04-07T22:36:15.733Z,2.13
2023-04-07T22:39:17.098Z,2.20
2023-04-07T22:42:18.674Z,2.77
2023-04-07T22:45:20.900Z,2.53
2023-04-07T22:48:22.268Z,2.90
2023-04-07T22:51:23.657Z,2.90
2023-04-07T22:54:25.267Z,2.90
2023-04-07T22:57:26.655Z,3.00
2023-04-07T23:00:28.275Z,3.10
2023-04-07T23:03:29.803Z,2.97
2023-04-07T23:06:31.991Z,3.10
2023-04-07T23:09:33.417Z,3.00
2023-04-07T23:12:34.959Z,2.97
2023-04-07T23:15:36.317Z,2.90
2023-04-07T23:18:37.753Z,2.77
2023-04-07T23:21:39.605Z,2.80
2023-04-07T23:24:41.588Z,3.13
2023-04-07T23:27:43.001Z,3.13
2023-04-07T23:30:44.395Z,3.20
2023-04-07T23:33:47.506Z,3.10
2023-04-07T23:36:48.901Z,2.90
2023-04-07T23:39:51.613Z,3.20
2023-04-07T23:42:52.985Z,3.70
2023-04-07T23:45:54.407Z,3.50
2023-04-07T23:48:55.929Z,3.43
2023-04-07T23:51:57.334Z,3.67
2023-04-07T23:54:58.741Z,3.90
2023-04-07T23:58:00.361Z,4.00
